Time;durP1;ratioP1;P1;durP2;ratioP2;P2;SDS_P1;SDS_P2;PMS_P1;PMS_P2;Temp;Humidity;BMP_temperature;BMP_pressure;BME280_temperature;BME280_humidity;BME280_pressure;Samples;Min_cycle;Max_cycle;Signal;HPM_P1;HPM_P2
2023/12/17 00:01:25;;;;;;;8.35;4.43;;;;;;;-0.21;100.00;102716.81;4971839;28;20065;-69
2023/12/17 00:03:51;;;;;;;7.13;4.03;;;;;;;-0.33;100.00;102708.66;4971812;28;20069;-69
2023/12/17 00:06:17;;;;;;;9.55;4.72;;;;;;;-0.66;100.00;102659.22;4971735;28;20041;-68
2023/12/17 00:08:43;;;;;;;7.88;4.03;;;;;;;-0.21;100.00;102734.56;4971640;28;20054;-69
2023/12/17 00:11:09;;;;;;;8.17;4.63;;;;;;;-0.22;100.00;102737.84;4971776;28;20107;-69
2023/12/17 00:13:35;;;;;;;9.20;4.90;;;;;;;-0.63;100.00;102675.53;4985669;28;20046;-69
2023/12/17 00:16:02;;;;;;;11.00;5.17;;;;;;;-0.28;100.00;102745.63;4971436;28;20050;-69
2023/12/17 00:18:29;;;;;;;10.52;5.22;;;;;;;-0.41;100.00;102748.38;4971729;28;20065;-69
2023/12/17 00:20:54;;;;;;;10.82;5.43;;;;;;;-0.38;100.00;102751.25;4974650;28;20054;-69
2023/12/17 00:23:20;;;;;;;10.07;5.67;;;;;;;-0.46;100.00;102730.75;4975735;28;20429;-69
2023/12/17 00:25:45;;;;;;;14.33;6.30;;;;;;;-0.56;100.00;102747.47;4975902;28;20054;-69
2023/12/17 00:28:11;;;;;;;11.03;6.07;;;;;;;-0.61;100.00;102753.63;4989562;28;20053;-69
2023/12/17 00:30:36;;;;;;;10.47;5.47;;;;;;;-0.57;100.00;102758.31;4975446;28;20038;-69
2023/12/17 00:33:02;;;;;;;10.93;5.23;;;;;;;-0.54;100.00;102761.22;4975309;28;20034;-69
2023/12/17 00:35:27;;;;;;;8.80;4.73;;;;;;;-0.59;100.00;102763.94;4975611;28;20022;-69
2023/12/17 00:37:53;;;;;;;10.45;5.63;;;;;;;-0.64;100.00;102763.38;4975133;28;20042;-69
2023/12/17 00:40:18;;;;;;;9.37;4.87;;;;;;;-0.56;100.00;102762.69;4975538;28;20539;-69
2023/12/17 00:42:46;;;;;;;9.85;5.15;;;;;;;-0.50;100.00;102767.56;4990358;28;20034;-69
2023/12/17 00:45:11;;;;;;;9.60;5.17;;;;;;;-0.50;100.00;102757.41;4975230;28;20031;-69
2023/12/17 00:47:37;;;;;;;9.47;5.27;;;;;;;-0.67;100.00;102732.59;4975098;28;20045;-69
2023/12/17 00:50:02;;;;;;;9.70;5.77;;;;;;;-0.50;100.00;102767.56;4975125;28;20038;-69
2023/12/17 00:52:28;;;;;;;13.57;6.27;;;;;;;-0.61;100.00;102751.09;4975210;28;20485;-69
2023/12/17 00:54:53;;;;;;;11.47;5.23;;;;;;;-1.21;100.00;102648.53;4976508;28;20101;-69
2023/12/17 00:57:19;;;;;;;12.13;5.28;;;;;;;-0.52;100.00;102764.84;4974996;28;20508;-69
2023/12/17 00:59:44;;;;;;;8.80;4.82;;;;;;;-0.85;100.00;102701.78;4974978;28;20038;-69
2023/12/17 01:02:10;;;;;;;17.27;7.53;;;;;;;-0.42;100.00;102774.47;4974854;28;20078;-69
2023/12/17 01:04:35;;;;;;;11.63;6.10;;;;;;;-0.31;100.00;102767.19;4975086;28;20428;-69
2023/12/17 01:07:01;;;;;;;14.40;6.15;;;;;;;-0.25;100.00;102770.47;4974622;28;20090;-69
2023/12/17 01:09:26;;;;;;;10.60;5.43;;;;;;;-0.33;100.00;102751.78;4974747;28;20101;-69
2023/12/17 01:11:52;;;;;;;12.25;5.57;;;;;;;-0.29;100.00;102779.34;4975139;28;20122;-69
2023/12/17 01:14:17;;;;;;;8.95;5.43;;;;;;;-0.26;100.00;102763.56;4974995;28;20027;-69
2023/12/17 01:16:43;;;;;;;7.40;4.95;;;;;;;-0.23;100.00;102762.28;4975058;28;20114;-69
2023/12/17 01:19:09;;;;;;;9.13;5.00;;;;;;;-0.24;100.00;102757.94;4974823;28;20719;-69
2023/12/17 01:21:34;;;;;;;9.50;5.07;;;;;;;-0.24;100.00;102757.94;4974606;28;20153;-69
2023/12/17 01:24:00;;;;;;;10.32;5.90;;;;;;;-0.31;100.00;102754.50;4974601;28;20479;-69
2023/12/17 01:26:29;;;;;;;9.45;5.10;;;;;;;-0.38;100.00;102751.25;4974600;28;20034;-69
2023/12/17 01:28:57;;;;;;;9.68;4.45;;;;;;;-0.76;100.00;102676.63;4988057;28;20039;-69
2023/12/17 01:31:23;;;;;;;8.77;4.57;;;;;;;-0.27;100.00;102749.09;4974338;28;20031;-69
2023/12/17 01:33:49;;;;;;;8.90;4.88;;;;;;;-0.24;100.00;102745.25;4974423;28;20510;-69
2023/12/17 01:36:15;;;;;;;10.15;4.88;;;;;;;-0.40;100.00;102746.72;4974049;28;20027;-69
2023/12/17 01:38:40;;;;;;;9.50;4.60;;;;;;;-0.52;100.00;102757.22;4974252;28;20041;-69
2023/12/17 01:41:09;;;;;;;8.40;4.30;;;;;;;-0.66;100.00;102734.41;4974280;28;20034;-69
2023/12/17 01:43:35;;;;;;;9.32;4.78;;;;;;;-0.60;100.00;102739.28;4974147;28;20030;-69
2023/12/17 01:46:01;;;;;;;7.30;4.28;;;;;;;-0.50;100.00;102739.66;4974419;28;20043;-69
2023/12/17 01:48:27;;;;;;;7.28;4.43;;;;;;;-0.32;100.00;102753.63;4974068;28;20034;-69
2023/12/17 01:50:54;;;;;;;8.30;4.80;;;;;;;-0.24;100.00;102757.03;4973886;28;20053;-69
2023/12/17 01:53:21;;;;;;;7.55;4.40;;;;;;;-0.75;100.00;102673.31;4974169;28;20037;-69
2023/12/17 01:55:49;;;;;;;8.57;4.93;;;;;;;-0.23;100.00;102766.47;4973903;28;20614;-69
2023/12/17 01:58:15;;;;;;;7.57;4.10;;;;;;;-0.32;100.00;102756.16;4973886;28;20525;-69
2023/12/17 02:00:41;;;;;;;8.40;4.35;;;;;;;-0.35;100.00;102758.31;4973999;28;20393;-69
2023/12/17 02:03:06;;;;;;;7.90;4.35;;;;;;;-0.57;100.00;102740.56;4986055;28;20034;-70
2023/12/17 02:05:36;;;;;;;7.68;4.35;;;;;;;-0.55;100.00;102759.44;4978081;28;20070;-71
2023/12/17 02:08:02;;;;;;;5.50;3.38;;;;;;;-0.84;100.00;102713.72;4981202;28;20022;-70
2023/12/17 02:10:28;;;;;;;8.93;4.28;;;;;;;-0.55;100.00;102761.97;4992178;28;20643;-70
2023/12/17 02:12:54;;;;;;;9.27;4.95;;;;;;;-0.54;100.00;102771.34;4985665;28;20034;-68
2023/12/17 02:15:19;;;;;;;8.63;4.10;;;;;;;-0.55;100.00;102768.66;4984604;28;20113;-68
2023/12/17 02:17:45;;;;;;;6.47;4.00;;;;;;;-0.55;100.00;102759.44;4991718;28;20027;-68
2023/12/17 02:20:11;;;;;;;6.85;3.97;;;;;;;-0.51;100.00;102768.31;4991570;28;20037;-69
2023/12/17 02:22:38;;;;;;;8.65;4.55;;;;;;;-0.46;100.00;102774.84;5006529;28;20524;-69
2023/12/17 02:25:04;;;;;;;11.23;4.78;;;;;;;-0.39;100.00;102768.84;4991902;28;20444;-69
2023/12/17 02:27:29;;;;;;;8.95;4.32;;;;;;;-0.33;100.00;102774.63;4991802;28;20106;-69
2023/12/17 02:29:55;;;;;;;8.52;4.32;;;;;;;-0.30;100.00;102772.44;4992055;28;20122;-69
2023/12/17 02:32:22;;;;;;;8.65;4.47;;;;;;;-0.95;100.00;102688.72;4992101;28;20040;-69
2023/12/17 02:34:48;;;;;;;7.15;3.65;;;;;;;-0.62;100.00;102781.31;4991924;28;20416;-69
2023/12/17 02:37:14;;;;;;;8.37;4.33;;;;;;;-0.78;100.00;102776.06;4992560;28;20018;-69
2023/12/17 02:39:40;;;;;;;6.97;4.17;;;;;;;-0.80;100.00;102772.44;5005750;28;20132;-69
2023/12/17 02:42:05;;;;;;;8.67;5.03;;;;;;;-0.69;100.00;102785.66;4991616;28;20548;-69
2023/12/17 02:44:31;;;;;;;9.03;4.30;;;;;;;-0.98;100.00;102731.47;4991678;28;20038;-69
2023/12/17 02:46:58;;;;;;;7.82;4.22;;;;;;;-0.91;100.00;102738.19;4992035;28;20105;-69
2023/12/17 02:49:24;;;;;;;7.88;4.32;;;;;;;-0.77;100.00;102770.25;4992168;28;20050;-69
2023/12/17 02:51:50;;;;;;;9.25;4.70;;;;;;;-0.72;100.00;102766.66;4992014;28;20030;-69
2023/12/17 02:54:19;;;;;;;8.65;4.82;;;;;;;-0.76;100.00;102772.06;4989157;28;20042;-70
2023/12/17 02:56:46;;;;;;;8.80;4.60;;;;;;;-0.76;100.00;102770.47;4992491;28;20055;-70
2023/12/17 02:59:13;;;;;;;8.57;4.43;;;;;;;-0.78;100.00;102771.00;4991755;28;20041;-69
2023/12/17 03:01:43;;;;;;;7.33;3.93;;;;;;;-0.86;100.00;102762.44;4991459;28;20057;-69
2023/12/17 03:04:09;;;;;;;7.60;4.23;;;;;;;-0.99;100.00;102775.28;4991361;28;20022;-69
2023/12/17 03:06:38;;;;;;;8.37;4.10;;;;;;;-1.10;100.00;102784.13;4991800;28;20401;-69
2023/12/17 03:09:05;;;;;;;7.18;3.47;;;;;;;-1.13;100.00;102781.25;4990150;28;20030;-69
2023/12/17 03:11:30;;;;;;;7.57;4.10;;;;;;;-1.00;100.00;102779.47;5005486;28;20038;-69
2023/12/17 03:13:56;;;;;;;8.70;4.17;;;;;;;-0.94;100.00;102771.69;4991392;28;20034;-69
2023/12/17 03:16:23;;;;;;;8.40;4.50;;;;;;;-1.04;100.00;102754.44;4991058;28;20035;-70
2023/12/17 03:18:48;;;;;;;8.95;4.38;;;;;;;-1.13;100.00;102748.28;4991151;28;20404;-69
2023/12/17 03:21:14;;;;;;;7.50;3.83;;;;;;;-0.92;100.00;102797.22;4991442;28;20037;-70
2023/12/17 03:23:39;;;;;;;6.70;4.57;;;;;;;-0.90;100.00;102784.00;4991227;28;20066;-70
2023/12/17 03:26:05;;;;;;;8.40;4.40;;;;;;;-0.99;100.00;102783.78;4991275;28;20030;-70
2023/12/17 03:28:30;;;;;;;8.40;4.30;;;;;;;-1.03;100.00;102798.47;4991192;28;20038;-69
2023/12/17 03:30:56;;;;;;;7.43;4.33;;;;;;;-1.09;100.00;102780.88;4991206;28;20034;-69
2023/12/17 03:33:22;;;;;;;7.97;4.50;;;;;;;-1.19;100.00;102790.63;4991127;28;20022;-69
2023/12/17 03:35:47;;;;;;;8.40;4.67;;;;;;;-1.22;100.00;102790.25;4991208;28;20053;-68
2023/12/17 03:38:13;;;;;;;10.13;5.27;;;;;;;-1.23;100.00;102793.53;4990813;28;20034;-69
2023/12/17 03:40:39;;;;;;;9.37;4.70;;;;;;;-1.33;100.00;102794.91;4990964;28;20030;-70
2023/12/17 03:43:04;;;;;;;9.73;4.77;;;;;;;-1.79;100.00;102721.78;4990647;28;20030;-69
2023/12/17 03:45:31;;;;;;;10.13;5.43;;;;;;;-1.40;100.00;102799.06;4990932;28;20036;-69
2023/12/17 03:47:57;;;;;;;7.40;4.60;;;;;;;-1.37;100.00;102801.94;4990633;28;20412;-69
2023/12/17 03:50:23;;;;;;;10.17;5.60;;;;;;;-1.45;100.00;102795.94;4991005;28;20018;-69
2023/12/17 03:52:49;;;;;;;9.73;5.43;;;;;;;-1.34;100.00;102804.88;5021406;28;20049;-69
2023/12/17 03:55:15;;;;;;;12.23;5.37;;;;;;;-1.30;100.00;102802.00;4990012;28;20030;-69
2023/12/17 03:57:41;;;;;;;9.60;5.27;;;;;;;-1.24;100.00;102800.19;4989391;28;20535;-69
2023/12/17 04:00:10;;;;;;;12.37;5.50;;;;;;;-1.17;100.00;102801.88;4990809;28;20045;-69
2023/12/17 04:02:36;;;;;;;10.00;5.78;;;;;;;-1.18;100.00;102803.47;4990325;28;20022;-69
2023/12/17 04:05:02;;;;;;;12.87;6.07;;;;;;;-1.20;100.00;102804.91;4988460;28;20495;-69
2023/12/17 04:07:29;;;;;;;8.53;5.30;;;;;;;-2.03;100.00;102658.03;4990610;28;20113;-69
2023/12/17 04:09:55;;;;;;;11.67;5.77;;;;;;;-1.24;100.00;102807.81;4990764;28;20030;-69
2023/12/17 04:12:21;;;;;;;10.13;5.73;;;;;;;-1.89;100.00;102702.78;4990385;28;20023;-69
2023/12/17 04:14:46;;;;;;;9.77;6.03;;;;;;;-1.43;100.00;102803.72;4990620;28;20022;-69
2023/12/17 04:17:12;;;;;;;9.97;6.03;;;;;;;-1.49;100.00;102806.44;5005463;28;20065;-69
2023/12/17 04:19:57;;;;;;;13.57;6.70;;;;;;;-1.47;100.00;102821.09;4990548;28;20423;-69
2023/12/17 04:22:23;;;;;;;12.30;6.67;;;;;;;-1.59;100.00;102803.50;5006953;28;20124;-69
2023/12/17 04:24:48;;;;;;;12.50;6.40;;;;;;;-1.67;100.00;102812.66;5007519;28;20133;-69
2023/12/17 04:27:14;;;;;;;10.73;5.93;;;;;;;-1.69;100.00;102807.41;5007218;28;20100;-69
2023/12/17 04:29:41;;;;;;;9.70;6.03;;;;;;;-1.81;100.00;102795.75;5007816;28;20527;-69
2023/12/17 04:32:06;;;;;;;11.07;6.90;;;;;;;-2.29;100.00;102722.41;5007581;28;20038;-69
2023/12/17 04:34:32;;;;;;;12.77;7.20;;;;;;;-2.26;100.00;102719.34;5007723;28;20033;-69
2023/12/17 04:36:59;;;;;;;10.70;6.53;;;;;;;-1.69;100.00;102822.59;5007475;28;20497;-69
2023/12/17 04:39:26;;;;;;;12.40;6.90;;;;;;;-1.65;100.00;102814.66;5007348;28;20026;-69
2023/12/17 04:41:51;;;;;;;14.77;8.33;;;;;;;-1.87;100.00;102795.91;5006989;28;20424;-69
2023/12/17 04:44:17;;;;;;;12.30;7.50;;;;;;;-1.80;100.00;102820.38;5007596;28;20041;-69
2023/12/17 04:46:43;;;;;;;12.63;7.90;;;;;;;-1.84;100.00;102823.25;5007312;28;20488;-69
2023/12/17 04:49:09;;;;;;;18.73;6.83;;;;;;;-1.80;100.00;102835.56;5007291;28;20046;-70
2023/12/17 04:51:34;;;;;;;13.17;7.57;;;;;;;-1.93;100.00;102820.47;5007423;28;20040;-69
2023/12/17 04:54:00;;;;;;;13.33;7.33;;;;;;;-1.95;100.00;102819.38;4994227;28;20042;-69
2023/12/17 04:56:25;;;;;;;16.33;7.97;;;;;;;-1.98;100.00;102826.59;4989798;28;20034;-69
2023/12/17 04:58:51;;;;;;;12.60;7.17;;;;;;;-1.99;100.00;102835.78;4990592;28;20431;-69
2023/12/17 05:01:16;;;;;;;14.03;7.77;;;;;;;-1.98;100.00;102841.78;4990329;28;20037;-69
2023/12/17 05:03:41;;;;;;;13.70;7.47;;;;;;;-2.13;100.00;102840.72;4990258;28;20057;-69
2023/12/17 05:06:08;;;;;;;12.83;7.43;;;;;;;-2.67;100.00;102750.47;4991405;28;20031;-69
2023/12/17 05:08:34;;;;;;;12.27;7.60;;;;;;;-2.28;100.00;102812.78;4994041;28;20061;-69
2023/12/17 05:10:59;;;;;;;10.60;6.93;;;;;;;-2.70;100.00;102747.56;4993145;28;20073;-70
2023/12/17 05:13:24;;;;;;;12.53;7.03;;;;;;;-2.55;100.00;102792.50;4994132;28;20092;-69
2023/12/17 05:15:50;;;;;;;11.13;6.73;;;;;;;-2.81;100.00;102757.22;4993312;28;20037;-69
2023/12/17 05:18:16;;;;;;;12.27;7.20;;;;;;;-2.45;100.00;102835.94;4993790;28;20030;-69
2023/12/17 05:20:41;;;;;;;12.50;7.40;;;;;;;-2.27;100.00;102849.09;4993801;28;20138;-70
2023/12/17 05:23:08;;;;;;;11.30;6.77;;;;;;;-2.80;100.00;102759.03;4993823;28;20069;-69
2023/12/17 05:25:34;;;;;;;13.23;7.40;;;;;;;-2.32;100.00;102855.22;4993475;28;20057;-69
2023/12/17 05:27:59;;;;;;;12.57;8.13;;;;;;;-2.26;100.00;102857.63;4993553;28;20030;-69
2023/12/17 05:30:25;;;;;;;15.23;8.47;;;;;;;-2.26;100.00;102860.16;4993234;28;20030;-69
2023/12/17 05:32:51;;;;;;;13.80;7.50;;;;;;;-2.78;100.00;102780.38;4992961;28;20092;-69
2023/12/17 05:35:17;;;;;;;11.77;7.20;;;;;;;-2.47;100.00;102839.00;4993152;28;20477;-69
2023/12/17 05:37:42;;;;;;;10.87;6.70;;;;;;;-2.48;100.00;102840.63;4992861;28;20037;-69
2023/12/17 05:40:08;;;;;;;14.50;8.47;;;;;;;-2.39;100.00;102870.31;4991466;28;20042;-69
2023/12/17 05:42:34;;;;;;;14.83;8.37;;;;;;;-2.82;100.00;102805.94;4992992;28;20038;-69
2023/12/17 05:45:00;;;;;;;12.70;7.87;;;;;;;-2.59;100.00;102866.16;4993254;28;20022;-69
2023/12/17 05:47:25;;;;;;;16.07;9.47;;;;;;;-2.63;100.00;102874.06;4993524;28;20085;-69
2023/12/17 05:49:51;;;;;;;18.60;11.77;;;;;;;-2.59;100.00;102871.22;4993052;28;20054;-69
2023/12/17 05:52:16;;;;;;;16.90;9.40;;;;;;;-2.52;100.00;102876.34;4993246;28;20031;-69
2023/12/17 05:54:44;;;;;;;15.97;9.10;;;;;;;-2.50;100.00;102874.03;4993122;28;20085;-69
2023/12/17 05:57:09;;;;;;;18.03;10.17;;;;;;;-2.65;100.00;102865.38;4993558;28;20371;-69
2023/12/17 05:59:35;;;;;;;18.50;10.03;;;;;;;-2.98;100.00;102802.16;4993345;28;20029;-69
2023/12/17 06:02:00;;;;;;;18.27;9.27;;;;;;;-2.71;100.00;102893.28;4993330;28;20038;-69
2023/12/17 06:04:26;;;;;;;26.63;9.63;;;;;;;-2.80;100.00;102894.66;4993269;28;20034;-69
2023/12/17 06:06:51;;;;;;;16.70;8.87;;;;;;;-3.25;100.00;102806.38;4993294;28;20036;-69
2023/12/17 06:09:17;;;;;;;22.63;9.23;;;;;;;-2.82;100.00;102881.78;4993502;28;20026;-69
2023/12/17 06:11:42;;;;;;;29.33;8.87;;;;;;;-2.76;100.00;102896.84;4992621;28;20476;-69
2023/12/17 06:14:08;;;;;;;21.10;9.10;;;;;;;-2.73;100.00;102896.34;4993066;28;20026;-69
2023/12/17 06:16:33;;;;;;;28.80;9.80;;;;;;;-2.70;100.00;102890.06;4993081;28;20026;-69
2023/12/17 06:18:59;;;;;;;26.93;8.67;;;;;;;-2.96;100.00;102836.13;4992307;28;20080;-69
2023/12/17 06:21:26;;;;;;;19.43;8.77;;;;;;;-2.58;100.00;102899.94;4991610;28;20036;-69
2023/12/17 06:23:57;;;;;;;21.17;8.57;;;;;;;-2.51;100.00;102897.50;4992962;28;20120;-69
2023/12/17 06:26:24;;;;;;;34.77;9.40;;;;;;;-2.49;100.00;102909.63;4993000;28;20041;-69
2023/12/17 06:28:50;;;;;;;30.83;10.70;;;;;;;-2.47;100.00;102903.16;4992970;28;20026;-68
2023/12/17 06:31:16;;;;;;;25.27;11.37;;;;;;;-2.45;100.00;102901.72;4992540;28;20481;-68
2023/12/17 06:33:41;;;;;;;26.90;9.73;;;;;;;-2.38;100.00;102898.38;4992537;28;20034;-69
2023/12/17 06:36:07;;;;;;;32.93;13.70;;;;;;;-2.35;100.00;102883.56;4992517;28;20509;-69
2023/12/17 06:38:33;;;;;;;23.60;12.30;;;;;;;-2.28;100.00;102895.34;4991322;28;20054;-69
2023/12/17 06:40:58;;;;;;;22.00;12.13;;;;;;;-2.33;100.00;102886.28;4992489;28;20124;-69
2023/12/17 06:43:24;;;;;;;18.97;10.47;;;;;;;-2.21;100.00;102897.97;4992556;28;20037;-69
2023/12/17 06:45:50;;;;;;;33.37;12.43;;;;;;;-2.20;100.00;102886.25;4992676;28;20041;-69
2023/12/17 06:48:16;;;;;;;30.97;11.07;;;;;;;-2.15;100.00;102897.84;4985926;28;20038;-68
2023/12/17 06:50:42;;;;;;;34.50;10.83;;;;;;;-2.12;100.00;102901.69;4992139;28;20093;-69
2023/12/17 06:53:07;;;;;;;49.57;12.17;;;;;;;-2.15;100.00;102901.28;4982449;28;20030;-69
2023/12/17 06:55:32;;;;;;;41.60;13.07;;;;;;;-2.14;100.00;102892.97;4972707;28;20042;-68
2023/12/17 06:57:58;;;;;;;36.80;17.97;;;;;;;-2.17;100.00;102897.66;4972759;28;20520;-67
2023/12/17 07:00:23;;;;;;;41.97;14.77;;;;;;;-2.06;100.00;102913.28;4989720;28;20030;-68
2023/12/17 07:02:49;;;;;;;32.40;15.30;;;;;;;-2.08;100.00;102905.50;4991362;28;20036;-68
2023/12/17 07:05:15;;;;;;;31.50;17.40;;;;;;;-2.11;100.00;102905.09;4991044;28;20030;-69
2023/12/17 07:07:43;;;;;;;40.60;23.43;;;;;;;-2.52;100.00;102828.28;4991532;28;20060;-69
2023/12/17 07:10:11;;;;;;;31.87;14.57;;;;;;;-1.97;100.00;102910.31;4991155;28;20036;-68
2023/12/17 07:12:36;;;;;;;27.53;14.07;;;;;;;-2.07;100.00;102897.19;4991071;28;20018;-69
2023/12/17 07:15:02;;;;;;;27.10;13.57;;;;;;;-1.90;100.00;102909.44;4990797;28;20453;-68
2023/12/17 07:17:27;;;;;;;26.63;11.43;;;;;;;-1.76;100.00;102906.13;4989183;28;20477;-68
2023/12/17 07:19:53;;;;;;;21.37;11.63;;;;;;;-1.84;100.00;102869.72;4990433;28;20054;-69
2023/12/17 07:22:22;;;;;;;22.63;11.53;;;;;;;-2.00;100.00;102820.41;4990408;28;20117;-68
2023/12/17 07:24:49;;;;;;;27.10;14.25;;;;;;;-1.42;100.00;102909.44;4990756;28;20117;-68
2023/12/17 07:27:14;;;;;;;32.37;18.77;;;;;;;-1.31;100.00;102910.06;4991032;28;20049;-68
2023/12/17 07:29:40;;;;;;;21.83;11.87;;;;;;;-1.30;100.00;102900.81;4990773;28;20473;-69
2023/12/17 07:32:05;;;;;;;35.13;23.60;;;;;;;-1.12;100.00;102922.47;4990948;28;20042;-69
2023/12/17 07:34:31;;;;;;;19.20;11.27;;;;;;;-1.00;100.00;102912.94;4990048;28;20042;-69
2023/12/17 07:36:58;;;;;;;17.37;10.23;;;;;;;-0.95;100.00;102911.84;4991327;28;20034;-68
2023/12/17 07:39:23;;;;;;;19.13;11.27;;;;;;;-0.83;100.00;102908.28;4991413;28;20040;-68
2023/12/17 07:41:49;;;;;;;21.23;11.10;;;;;;;-0.69;100.00;102912.50;4991139;28;20411;-69
2023/12/17 07:44:14;;;;;;;21.00;11.48;;;;;;;-0.69;100.00;102891.31;4991209;28;20065;-69
2023/12/17 07:46:40;;;;;;;15.10;9.07;;;;;;;-0.54;100.00;102904.94;4990973;28;20036;-69
2023/12/17 07:49:06;;;;;;;16.83;10.30;;;;;;;-0.89;100.00;102826.38;4988777;28;20084;-69
2023/12/17 07:51:31;;;;;;;17.35;9.70;;;;;;;-0.42;100.00;102882.69;4991395;28;20109;-69
2023/12/17 07:53:57;;;;;;;16.23;9.90;;;;;;;-0.31;100.00;102877.28;4991324;28;20029;-69
2023/12/17 07:56:23;;;;;;;16.48;10.32;;;;;;;-0.17;100.00;102891.59;4991196;28;20404;-68
2023/12/17 07:58:48;;;;;;;20.58;13.23;;;;;;;-0.04;100.00;102883.78;4991072;28;20113;-69
2023/12/17 08:01:15;;;;;;;17.45;9.73;;;;;;;-0.40;100.00;102821.25;4991052;28;20026;-69
2023/12/17 08:03:40;;;;;;;18.30;10.85;;;;;;;-0.30;100.00;102824.84;4988597;28;20046;-69
2023/12/17 08:06:06;;;;;;;16.83;10.30;;;;;;;0.18;100.00;102897.41;4990933;28;20042;-68
2023/12/17 08:08:31;;;;;;;16.83;9.80;;;;;;;-0.06;100.00;102832.84;4990873;28;20133;-68
2023/12/17 08:10:57;;;;;;;15.85;10.00;;;;;;;0.32;100.00;102902.50;4990940;28;20081;-68
2023/12/17 08:13:22;;;;;;;16.73;10.18;;;;;;;0.33;100.00;102883.06;4990778;28;20408;-68
2023/12/17 08:15:48;;;;;;;17.80;10.55;;;;;;;0.53;100.00;102900.63;4990871;28;20116;-69
2023/12/17 08:18:14;;;;;;;19.52;12.15;;;;;;;0.63;100.00;102900.97;4990540;28;20037;-68
2023/12/17 08:20:40;;;;;;;19.27;11.98;;;;;;;0.62;100.00;102893.16;4990742;28;20096;-68
2023/12/17 08:23:06;;;;;;;17.58;10.23;;;;;;;0.63;100.00;102867.91;4991118;28;20034;-68
2023/12/17 08:25:38;;;;;;;17.10;10.27;;;;;;;0.28;100.00;102819.00;4991069;28;20062;-68
2023/12/17 08:28:04;;;;;;;16.27;10.13;;;;;;;0.75;100.00;102895.50;4990647;28;20038;-68
2023/12/17 08:30:30;;;;;;;14.07;8.63;;;;;;;0.75;100.00;102891.31;4990110;28;20034;-68
2023/12/17 08:32:55;;;;;;;14.90;9.63;;;;;;;0.76;100.00;102862.63;4990514;28;20092;-69
2023/12/17 08:35:21;;;;;;;15.15;9.40;;;;;;;0.84;100.00;102875.31;4991005;28;20031;-69
2023/12/17 08:37:46;;;;;;;13.77;8.77;;;;;;;0.94;100.00;102878.19;4990914;28;20109;-69
2023/12/17 08:40:12;;;;;;;13.25;8.57;;;;;;;0.78;100.00;102822.13;4990868;28;20034;-70
2023/12/17 08:42:39;;;;;;;11.70;6.70;;;;;;;1.22;100.00;102868.59;4994437;28;20031;-71
2023/12/17 08:45:04;;;;;;;13.30;7.93;;;;;;;1.31;100.00;102869.66;4994612;28;20057;-71
2023/12/17 08:47:30;;;;;;;16.83;7.65;;;;;;;1.37;100.00;102869.44;4994219;28;20034;-69
2023/12/17 08:49:59;;;;;;;11.32;6.88;;;;;;;1.31;100.00;102867.13;4993200;28;20042;-69
2023/12/17 08:52:26;;;;;;;10.07;6.05;;;;;;;1.25;100.00;102866.41;4994686;28;20510;-69
2023/12/17 08:54:52;;;;;;;12.73;7.18;;;;;;;1.03;100.00;102838.53;4994385;28;20030;-69
2023/12/17 08:57:17;;;;;;;12.48;7.15;;;;;;;1.03;100.00;102856.34;4993505;28;20507;-69
2023/12/17 08:59:44;;;;;;;11.75;6.80;;;;;;;1.13;100.00;102855.75;4994147;28;20062;-69
2023/12/17 09:02:09;;;;;;;13.20;7.28;;;;;;;1.16;100.00;102850.09;4994095;28;20045;-69
2023/12/17 09:04:34;;;;;;;13.60;6.88;;;;;;;1.19;100.00;102843.72;4994369;28;20027;-69
2023/12/17 09:09:32;;;;;;;11.60;6.82;;;;;;;1.46;100.00;102834.84;5089998;23;20440;-69
2023/12/17 09:11:58;;;;;;;15.40;8.45;;;;;;;1.62;100.00;102827.28;5014200;28;20033;-69
2023/12/17 09:14:23;;;;;;;13.82;7.82;;;;;;;1.70;100.00;102831.56;5013878;28;20045;-68
2023/12/17 09:16:49;;;;;;;12.52;7.18;;;;;;;1.48;100.00;102772.25;5013594;28;20033;-68
2023/12/17 09:19:14;;;;;;;15.70;10.05;;;;;;;2.07;100.00;102835.63;5014034;28;20030;-68
2023/12/17 09:21:40;;;;;;;11.25;6.47;;;;;;;2.24;100.00;102831.44;5013812;28;20411;-68
2023/12/17 09:24:06;;;;;;;11.30;7.50;;;;;;;2.28;100.00;102823.41;5013863;28;20519;-68
2023/12/17 09:26:31;;;;;;;88.80;37.25;;;;;;;2.42;100.00;102822.34;5012470;28;20071;-69
2023/12/17 09:28:57;;;;;;;15.02;8.70;;;;;;;2.16;100.00;102760.91;5013584;28;20030;-69
2023/12/17 09:31:22;;;;;;;11.20;6.40;;;;;;;2.45;100.00;102816.66;5012363;28;20049;-69
2023/12/17 09:33:48;;;;;;;10.80;6.43;;;;;;;2.68;100.00;102812.38;5013456;28;20057;-68
2023/12/17 09:36:15;;;;;;;10.57;5.32;;;;;;;2.62;100.00;102811.72;5013722;28;20113;-69
2023/12/17 09:38:42;;;;;;;10.65;6.05;;;;;;;2.75;100.00;102794.44;5026676;28;20416;-69
2023/12/17 09:41:08;;;;;;;11.52;7.97;;;;;;;2.75;100.00;102758.75;5013550;28;20034;-69
2023/12/17 09:43:34;;;;;;;9.98;6.15;;;;;;;2.70;100.00;102794.69;5013188;28;20033;-68
2023/12/17 09:45:59;;;;;;;15.10;10.73;;;;;;;2.75;100.00;102799.56;5013063;28;20112;-69
2023/12/17 09:48:25;;;;;;;9.57;6.43;;;;;;;2.71;100.00;102805.03;5030082;28;20107;-69
2023/12/17 09:50:51;;;;;;;33.53;18.13;;;;;;;2.84;100.00;102804.72;5030529;28;20523;-69
2023/12/17 09:53:16;;;;;;;26.08;14.35;;;;;;;2.72;100.00;102799.22;5028632;28;20510;-70
2023/12/17 09:55:42;;;;;;;65.18;33.53;;;;;;;2.90;100.00;102801.91;5030337;28;20029;-68
2023/12/17 09:58:07;;;;;;;29.02;17.55;;;;;;;3.03;100.00;102802.44;5030067;28;20100;-69
2023/12/17 10:00:33;;;;;;;15.23;10.73;;;;;;;3.12;100.00;102773.53;5029829;28;20029;-69
2023/12/17 10:03:06;;;;;;;17.58;12.15;;;;;;;3.10;100.00;102752.06;5029900;28;20431;-69
2023/12/17 10:05:32;;;;;;;11.93;6.90;;;;;;;3.39;100.00;102803.59;5029731;28;20057;-70
2023/12/17 10:07:59;;;;;;;12.18;7.13;;;;;;;3.00;100.00;102720.47;5030038;28;20200;-67
2023/12/17 10:10:25;;;;;;;11.95;6.85;;;;;;;3.40;100.00;102800.28;5029747;28;20091;-67
2023/12/17 10:12:51;;;;;;;11.30;8.05;;;;;;;3.30;100.00;102783.13;5029971;28;20041;-68
2023/12/17 10:15:18;;;;;;;11.45;6.82;;;;;;;3.54;100.00;102804.28;5029807;28;20056;-70
2023/12/17 10:17:44;;;;;;;20.67;12.13;;;;;;;3.46;100.00;102798.34;5029764;28;20531;-68
2023/12/17 10:20:10;;;;;;;12.07;7.70;;;;;;;3.35;100.00;102791.22;5015394;28;20172;-71
2023/12/17 10:22:35;;;;;;;13.88;7.90;;;;;;;3.38;100.00;102784.78;5012561;28;20055;-70
2023/12/17 10:25:01;;;;;;;21.48;12.30;;;;;;;3.19;100.00;102714.72;5012293;28;20414;-68
2023/12/17 10:27:27;;;;;;;16.20;10.18;;;;;;;3.70;100.00;102778.63;5011784;28;20022;-69
2023/12/17 10:29:53;;;;;;;14.80;9.80;;;;;;;3.82;100.00;102778.97;5010931;28;20033;-68
2023/12/17 10:32:23;;;;;;;18.98;11.48;;;;;;;3.88;100.00;102774.50;5012285;28;20049;-69
2023/12/17 10:34:51;;;;;;;15.40;11.20;;;;;;;3.41;100.00;102705.06;5012213;28;20026;-71
2023/12/17 10:37:21;;;;;;;15.50;9.93;;;;;;;3.80;100.00;102766.06;5012164;28;20022;-69
2023/12/17 10:39:49;;;;;;;14.40;9.35;;;;;;;3.94;100.00;102776.75;5012041;28;20026;-69
2023/12/17 10:42:16;;;;;;;16.92;11.27;;;;;;;3.72;100.00;102759.25;5011945;28;20028;-69
2023/12/17 10:44:45;;;;;;;20.83;16.80;;;;;;;3.64;100.00;102750.81;5011724;28;20049;-69
2023/12/17 10:47:13;;;;;;;12.40;8.40;;;;;;;3.74;100.00;102757.78;5010477;28;20034;-68
2023/12/17 10:49:40;;;;;;;13.93;8.05;;;;;;;3.78;100.00;102749.66;5006921;28;20715;-68
2023/12/17 10:52:06;;;;;;;12.48;7.65;;;;;;;3.77;100.00;102694.19;5012420;28;20408;-68
2023/12/17 10:54:32;;;;;;;10.48;7.32;;;;;;;3.80;100.00;102737.03;5012017;28;20185;-71
2023/12/17 10:56:59;;;;;;;11.48;7.55;;;;;;;3.88;100.00;102749.84;5010296;28;20498;-69
2023/12/17 10:59:30;;;;;;;12.15;7.20;;;;;;;3.96;100.00;102763.41;4997385;28;20022;-67
2023/12/17 11:01:59;;;;;;;14.30;7.63;;;;;;;3.88;100.00;102743.81;5003173;28;20038;-67
2023/12/17 11:04:25;;;;;;;11.53;7.43;;;;;;;3.46;100.00;102659.56;5008353;28;20034;-67
2023/12/17 11:06:51;;;;;;;15.68;9.40;;;;;;;4.19;100.00;102752.00;5008648;28;20368;-70
2023/12/17 11:09:18;;;;;;;14.23;8.77;;;;;;;4.27;100.00;102748.53;5006731;28;20050;-71